Time;durP1;ratioP1;P1;durP2;ratioP2;P2;SDS_P1;SDS_P2;PMS_P1;PMS_P2;Temp;Humidity;BMP_temperature;BMP_pressure;BME280_temperature;BME280_humidity;BME280_pressure;Samples;Min_cycle;Max_cycle;Signal;HPM_P1;HPM_P2
2022/12/27 00:00:22;;;;;;;11.70;2.00;;;5.00;99.90;;;;;;5093571;28;20462;-36
2022/12/27 00:02:48;;;;;;;9.38;2.00;;;5.00;99.90;;;;;;5089132;28;20020;-32
2022/12/27 00:05:14;;;;;;;6.80;1.30;;;5.00;99.90;;;;;;5082397;28;20062;-38
2022/12/27 00:07:41;;;;;;;9.60;1.60;;;4.90;99.90;;;;;;5083688;28;20028;-40
2022/12/27 00:10:08;;;;;;;13.13;1.60;;;4.90;99.90;;;;;;5081688;28;20028;-40
2022/12/27 00:12:34;;;;;;;9.40;1.52;;;5.00;99.90;;;;;;5078862;28;20028;-35
2022/12/27 00:14:59;;;;;;;5.38;1.70;;;5.00;99.90;;;;;;5086363;28;20549;-38
2022/12/27 00:17:26;;;;;;;6.43;2.92;;;5.00;99.90;;;;;;5087560;28;20540;-37
2022/12/27 00:19:51;;;;;;;4.85;1.58;;;5.00;99.90;;;;;;5082677;28;20127;-36
2022/12/27 00:22:17;;;;;;;8.23;2.20;;;5.00;99.90;;;;;;5080638;28;20094;-38
2022/12/27 00:24:43;;;;;;;6.72;1.63;;;5.00;99.90;;;;;;5078281;28;20035;-37
2022/12/27 00:27:08;;;;;;;5.85;1.63;;;5.00;99.90;;;;;;5083598;28;20028;-37
2022/12/27 00:29:34;;;;;;;4.35;1.23;;;5.00;99.90;;;;;;5082713;28;20400;-38
2022/12/27 00:31:59;;;;;;;4.78;2.00;;;5.10;99.90;;;;;;5081852;28;20063;-37
2022/12/27 00:34:25;;;;;;;13.10;1.80;;;5.10;99.90;;;;;;5082988;28;20036;-40
2022/12/27 00:36:50;;;;;;;6.38;1.30;;;5.10;99.90;;;;;;5083218;28;20043;-35
2022/12/27 00:39:16;;;;;;;8.20;1.52;;;5.20;99.90;;;;;;5088212;28;20049;-35
2022/12/27 00:41:42;;;;;;;7.25;1.67;;;5.20;99.90;;;;;;5085227;28;20023;-34
2022/12/27 00:44:08;;;;;;;3.35;1.13;;;5.20;99.90;;;;;;5081937;28;20198;-41
2022/12/27 00:46:33;;;;;;;11.70;1.52;;;5.20;99.90;;;;;;5081542;28;20036;-36
2022/12/27 00:48:59;;;;;;;10.82;2.17;;;5.20;99.90;;;;;;5085121;28;20108;-33
2022/12/27 00:51:25;;;;;;;7.85;1.63;;;5.20;99.90;;;;;;5079902;28;20039;-42
2022/12/27 00:53:52;;;;;;;12.25;1.52;;;5.30;99.90;;;;;;5081846;28;20503;-37
2022/12/27 00:56:24;;;;;;;3.78;1.27;;;5.30;99.90;;;;;;5081635;28;20495;-48
2022/12/27 00:58:58;;;;;;;4.50;1.48;;;5.40;99.90;;;;;;5083620;28;20101;-41
2022/12/27 01:01:26;;;;;;;10.00;1.80;;;5.50;99.90;;;;;;5081759;28;20503;-43
2022/12/27 01:03:51;;;;;;;9.07;1.73;;;5.50;99.90;;;;;;5083109;28;20032;-34
2022/12/27 01:06:21;;;;;;;11.40;1.75;;;5.50;99.90;;;;;;5082378;28;20396;-39
2022/12/27 01:08:47;;;;;;;2.03;0.82;;;5.60;99.90;;;;;;5082465;28;20032;-36
2022/12/27 01:11:14;;;;;;;12.00;1.80;;;5.60;99.90;;;;;;5090768;28;20039;-40
2022/12/27 01:13:40;;;;;;;9.00;1.33;;;5.60;99.90;;;;;;5081751;28;20034;-40
2022/12/27 01:16:32;;;;;;;6.38;1.50;;;5.60;99.90;;;;;;5085545;28;20484;-37
2022/12/27 01:18:58;;;;;;;7.28;1.95;;;5.60;99.90;;;;;;5087409;28;20040;-38
2022/12/27 01:21:24;;;;;;;9.40;1.52;;;5.50;99.90;;;;;;5076458;28;20028;-38
2022/12/27 01:23:50;;;;;;;9.52;2.25;;;5.50;99.90;;;;;;5094474;28;20112;-36
2022/12/27 01:26:19;;;;;;;10.45;1.40;;;5.50;99.90;;;;;;5081031;28;20183;-38
2022/12/27 01:28:45;;;;;;;6.32;1.58;;;5.50;99.90;;;;;;5082980;28;20568;-35
2022/12/27 01:31:14;;;;;;;7.32;1.33;;;5.60;99.90;;;;;;5091380;28;20526;-36
2022/12/27 01:33:39;;;;;;;;;;;5.70;99.90;;;;;;5093266;28;20092;-39
2022/12/27 01:36:13;;;;;;;4.82;1.38;;;5.70;99.90;;;;;;5080421;28;20310;-40
2022/12/27 01:38:41;;;;;;;7.85;1.42;;;5.70;99.90;;;;;;5083285;28;20028;-38
2022/12/27 01:44:38;;;;;;;3.42;0.77;;;5.70;99.90;;;;;;5087053;28;20035;-37
2022/12/27 01:47:30;;;;;;;4.78;1.38;;;5.80;99.90;;;;;;5114524;28;20059;-36
2022/12/27 01:50:13;;;;;;;7.65;1.23;;;5.80;99.90;;;;;;5096527;28;20030;-38
2022/12/27 01:52:42;;;;;;;11.02;0.80;;;5.90;99.90;;;;;;5092042;28;20024;-38
2022/12/27 01:55:20;;;;;;;3.58;1.13;;;5.90;99.90;;;;;;5083658;28;20491;-37
2022/12/27 01:57:48;;;;;;;7.03;1.00;;;5.90;99.90;;;;;;5077743;28;20040;-35
2022/12/27 02:00:15;;;;;;;4.95;1.27;;;5.90;99.90;;;;;;5091462;28;20388;-40
2022/12/27 02:02:40;;;;;;;11.45;1.92;;;5.80;99.90;;;;;;5082700;28;20028;-37
2022/12/27 02:05:09;;;;;;;7.85;1.92;;;5.80;99.90;;;;;;5095731;28;20026;-36
2022/12/27 02:08:00;;;;;;;9.15;2.47;;;5.70;99.90;;;;;;5093088;28;20107;-38
2022/12/27 02:10:28;;;;;;;3.45;1.30;;;5.70;99.90;;;;;;5093949;28;20035;-35
2022/12/27 02:12:54;;;;;;;4.37;1.13;;;5.60;99.90;;;;;;5094921;28;20024;-39
2022/12/27 02:15:19;;;;;;;7.68;2.58;;;5.50;99.90;;;;;;5094629;28;20055;-38
2022/12/27 02:17:45;;;;;;;6.10;1.77;;;5.50;99.90;;;;;;5094740;28;20020;-35
2022/12/27 02:20:17;;;;;;;7.57;1.35;;;5.50;99.90;;;;;;5083060;28;20023;-35
2022/12/27 02:26:23;;;;;;;6.25;1.92;;;5.40;99.90;;;;;;5082858;28;20120;-37
2022/12/27 02:29:18;;;;;;;12.73;1.70;;;5.40;99.90;;;;;;5078633;28;20553;-38
2022/12/27 02:32:01;;;;;;;7.50;1.58;;;5.30;99.90;;;;;;5095055;28;20040;-35
2022/12/27 02:34:53;;;;;;;3.72;1.58;;;5.30;99.90;;;;;;5095594;28;20494;-38
2022/12/27 02:37:22;;;;;;;3.17;1.30;;;5.30;99.90;;;;;;5086025;28;20086;-36
2022/12/27 02:39:49;;;;;;;3.55;1.10;;;5.30;99.90;;;;;;5086135;28;20460;-34
2022/12/27 02:54:16;;;;;;;4.90;1.80;;;5.40;99.90;;;;;;5094396;28;20135;-41
2022/12/27 02:57:08;;;;;;;10.60;1.45;;;5.40;99.90;;;;;;5073027;28;20591;-36
2022/12/27 03:08:56;;;;;;;8.43;1.80;;;5.40;99.90;;;;;;5094472;28;20027;-37
2022/12/27 03:17:13;;;;;;;9.30;2.03;;;5.50;99.90;;;;;;5091741;28;20090;-35
2022/12/27 03:25:27;;;;;;;9.10;1.42;;;5.50;99.90;;;;;;5082750;28;20038;-33
2022/12/27 03:33:28;;;;;;;8.15;1.52;;;5.50;99.90;;;;;;5090178;28;19914;-38
2022/12/27 03:39:18;;;;;;;10.88;1.58;;;5.50;99.90;;;;;;5073828;28;19915;-39
2022/12/27 03:44:37;;;;;;;6.53;1.63;;;5.40;99.90;;;;;;5093323;28;20084;-39
2022/12/27 03:47:42;;;;;;;11.85;2.08;;;5.40;99.90;;;;;;5093053;28;20035;-40
2022/12/27 03:50:17;;;;;;;8.13;1.63;;;5.40;99.90;;;;;;5088516;28;20037;-40
2022/12/27 03:53:20;;;;;;;7.68;1.20;;;5.40;99.90;;;;;;5088037;28;20371;-42
2022/12/27 03:55:46;;;;;;;15.82;1.80;;;5.30;99.90;;;;;;5085467;28;20036;-37
2022/12/27 03:58:12;;;;;;;10.07;1.90;;;5.30;99.90;;;;;;5074256;28;20891;-34
2022/12/27 04:00:37;;;;;;;4.80;1.77;;;5.30;99.90;;;;;;5078527;28;20099;-38
2022/12/27 04:03:03;;;;;;;5.07;1.58;;;5.30;99.90;;;;;;5093128;28;20012;-34
2022/12/27 04:05:29;;;;;;;3.08;0.98;;;5.20;99.90;;;;;;5091756;28;20084;-35
2022/12/27 04:35:16;;;;;;;3.67;1.40;;;5.10;99.90;;;;;;5079303;28;20078;-35
2022/12/27 04:37:42;;;;;;;2.63;1.00;;;5.10;99.90;;;;;;5093350;28;20052;-36
2022/12/27 04:56:32;;;;;;;9.50;1.48;;;5.20;99.90;;;;;;5081922;28;20059;-36
2022/12/27 05:04:26;;;;;;;14.35;1.92;;;5.20;99.90;;;;;;5092239;28;20035;-42
2022/12/27 05:06:52;;;;;;;9.38;1.50;;;5.20;99.90;;;;;;5082478;28;20029;-35
2022/12/27 05:14:46;;;;;;;8.13;1.60;;;5.20;99.90;;;;;;5084488;28;20062;-40
2022/12/27 05:17:12;;;;;;;8.55;1.23;;;5.20;99.90;;;;;;5072406;28;20049;-38
2022/12/27 05:19:37;;;;;;;8.70;1.58;;;5.20;99.90;;;;;;5080760;28;20383;-37
2022/12/27 05:27:42;;;;;;;12.25;1.60;;;5.10;99.90;;;;;;5083884;28;20511;-37
2022/12/27 05:30:08;;;;;;;4.55;1.20;;;5.20;99.90;;;;;;5072918;28;20033;-48
2022/12/27 05:32:34;;;;;;;8.32;1.77;;;5.20;99.90;;;;;;5087342;28;20541;-34
2022/12/27 05:34:59;;;;;;;10.18;1.60;;;5.20;99.90;;;;;;5088219;28;20032;-38
2022/12/27 05:37:25;;;;;;;6.78;1.65;;;5.20;99.90;;;;;;5082698;28;20493;-40
2022/12/27 05:39:51;;;;;;;6.60;1.67;;;5.10;99.90;;;;;;5091638;28;20031;-36
2022/12/27 05:42:16;;;;;;;6.03;1.27;;;5.10;99.90;;;;;;5081831;28;20024;-41
2022/12/27 05:44:42;;;;;;;10.43;2.72;;;5.10;99.90;;;;;;5076911;28;20456;-41
2022/12/27 05:47:08;;;;;;;14.35;1.30;;;5.10;99.90;;;;;;5071579;28;20511;-42
2022/12/27 05:49:33;;;;;;;4.97;1.40;;;5.00;99.90;;;;;;5087662;28;20105;-43
2022/12/27 05:51:59;;;;;;;8.55;2.10;;;5.00;99.90;;;;;;5075997;28;20032;-41
2022/12/27 05:54:24;;;;;;;2.83;1.15;;;5.00;99.90;;;;;;5085788;28;20044;-39
2022/12/27 05:56:50;;;;;;;11.05;1.17;;;5.10;99.90;;;;;;5079467;28;20028;-40
2022/12/27 05:59:16;;;;;;;6.63;1.52;;;5.10;99.90;;;;;;5092387;28;20032;-41
2022/12/27 06:01:41;;;;;;;11.25;2.35;;;5.00;99.90;;;;;;5093666;28;20048;-41
2022/12/27 06:04:09;;;;;;;16.10;1.55;;;5.00;99.90;;;;;;5095984;28;20053;-41
2022/12/27 06:06:34;;;;;;;14.95;2.17;;;5.00;99.90;;;;;;5082309;28;20383;-41
2022/12/27 06:09:00;;;;;;;5.32;1.45;;;5.00;99.90;;;;;;5088863;28;20025;-42
2022/12/27 06:11:25;;;;;;;14.63;1.70;;;5.00;99.90;;;;;;5090687;28;20039;-41
2022/12/27 06:13:53;;;;;;;13.63;1.75;;;5.00;99.90;;;;;;5088429;28;20507;-42
2022/12/27 06:16:20;;;;;;;3.93;1.33;;;5.00;99.90;;;;;;5094252;28;20488;-43
2022/12/27 06:18:45;;;;;;;11.35;1.35;;;5.00;99.90;;;;;;5088582;28;20503;-42
2022/12/27 06:21:14;;;;;;;14.45;1.88;;;5.00;99.90;;;;;;5077647;28;20118;-41
2022/12/27 06:23:41;;;;;;;13.10;1.83;;;5.00;99.90;;;;;;5089022;28;20488;-38
2022/12/27 06:26:21;;;;;;;13.57;1.63;;;5.00;99.90;;;;;;5086015;28;20024;-39
2022/12/27 06:28:48;;;;;;;12.18;1.88;;;5.00;99.90;;;;;;5093580;28;20051;-40
2022/12/27 06:31:14;;;;;;;10.52;1.35;;;5.00;99.90;;;;;;5094210;28;20492;-41
2022/12/27 06:33:40;;;;;;;13.77;1.83;;;5.00;99.90;;;;;;5095236;28;20062;-35
2022/12/27 06:36:11;;;;;;;8.63;1.42;;;5.00;99.90;;;;;;5094118;28;20043;-37
2022/12/27 06:38:37;;;;;;;8.50;1.20;;;5.10;99.90;;;;;;5077026;28;20526;-40
2022/12/27 06:41:08;;;;;;;10.27;1.20;;;5.00;99.90;;;;;;5073949;28;20044;-45
2022/12/27 06:43:34;;;;;;;5.35;1.65;;;5.00;99.90;;;;;;5077974;28;20020;-42
2022/12/27 06:46:01;;;;;;;2.45;1.17;;;5.00;99.90;;;;;;5087522;28;20078;-41
2022/12/27 06:48:28;;;;;;;7.38;1.10;;;5.00;99.90;;;;;;5089986;28;20550;-43
2022/12/27 06:50:54;;;;;;;10.25;1.80;;;5.00;99.90;;;;;;5088498;28;20024;-42
2022/12/27 06:53:20;;;;;;;4.22;1.63;;;5.00;99.90;;;;;;5080363;28;20024;-40
2022/12/27 06:55:46;;;;;;;3.70;0.95;;;5.00;99.90;;;;;;5084257;28;20476;-40
2022/12/27 06:58:12;;;;;;;13.55;1.90;;;5.00;99.90;;;;;;5092680;28;20031;-43
2022/12/27 07:00:38;;;;;;;7.07;1.42;;;5.00;99.90;;;;;;5087576;28;20035;-40
2022/12/27 07:03:04;;;;;;;7.47;1.00;;;5.00;99.90;;;;;;5077159;28;20036;-43
2022/12/27 07:05:30;;;;;;;15.38;2.35;;;5.00;99.90;;;;;;5086461;28;20028;-56
2022/12/27 07:07:56;;;;;;;7.57;2.00;;;5.00;99.90;;;;;;5081321;28;20024;-40
2022/12/27 07:10:22;;;;;;;19.20;1.77;;;4.90;99.90;;;;;;5078599;28;20392;-40
2022/12/27 07:12:47;;;;;;;7.05;1.45;;;4.90;99.90;;;;;;5090313;28;20114;-41
2022/12/27 07:15:13;;;;;;;19.58;1.65;;;4.90;99.90;;;;;;5089193;28;20099;-43
2022/12/27 07:17:39;;;;;;;5.97;1.58;;;4.80;99.90;;;;;;5085412;28;20065;-40
2022/12/27 07:20:06;;;;;;;7.35;1.08;;;4.80;99.90;;;;;;5094504;28;20531;-43
2022/12/27 07:22:32;;;;;;;9.82;1.63;;;4.80;99.90;;;;;;5090105;28;20490;-41
2022/12/27 07:24:57;;;;;;;9.00;1.60;;;4.80;99.90;;;;;;5093319;28;20024;-40
2022/12/27 07:27:23;;;;;;;6.00;1.23;;;4.70;99.90;;;;;;5093766;28;20110;-39
2022/12/27 07:29:49;;;;;;;17.35;1.75;;;4.70;99.90;;;;;;5087630;28;20035;-38
2022/12/27 07:32:14;;;;;;;8.00;1.60;;;4.80;99.90;;;;;;5091246;28;20067;-40
2022/12/27 07:34:40;;;;;;;7.35;1.25;;;4.80;99.90;;;;;;5093433;28;20542;-39
2022/12/27 07:37:06;;;;;;;5.68;1.55;;;4.80;99.90;;;;;;5093345;28;20055;-41
2022/12/27 07:39:32;;;;;;;6.85;1.17;;;4.90;99.90;;;;;;5094162;28;20357;-39
2022/12/27 07:41:57;;;;;;;5.30;1.23;;;4.90;99.90;;;;;;5082831;28;20031;-36
2022/12/27 07:44:23;;;;;;;11.02;1.85;;;5.00;99.90;;;;;;5089875;28;20032;-37
2022/12/27 07:46:49;;;;;;;11.52;1.33;;;5.00;99.90;;;;;;5081525;28;20476;-32
2022/12/27 07:49:14;;;;;;;10.98;1.20;;;4.90;99.90;;;;;;5082133;28;20590;-36
2022/12/27 07:51:40;;;;;;;3.53;1.27;;;4.90;99.90;;;;;;5076422;28;20032;-33
2022/12/27 07:54:06;;;;;;;7.93;1.08;;;4.90;99.90;;;;;;5071804;28;20048;-38
2022/12/27 07:56:31;;;;;;;10.70;2.65;;;4.90;99.90;;;;;;5076030;28;20118;-34
2022/12/27 07:58:59;;;;;;;5.07;1.17;;;4.80;99.90;;;;;;5073067;28;20056;-35
2022/12/27 08:01:27;;;;;;;18.90;2.22;;;4.90;99.90;;;;;;5077322;28;20020;-36
2022/12/27 08:03:53;;;;;;;;;;;4.80;99.90;;;;;;5092635;28;20032;-34
2022/12/27 08:06:31;;;;;;;10.43;1.58;;;4.80;99.90;;;;;;5092065;28;19930;-36
2022/12/27 08:08:58;;;;;;;5.85;1.80;;;4.80;99.90;;;;;;5082793;28;20032;-33
2022/12/27 08:11:25;;;;;;;7.53;1.63;;;4.80;99.90;;;;;;5087791;28;20480;-38
2022/12/27 08:13:51;;;;;;;11.30;1.80;;;4.80;99.90;;;;;;5076402;28;20508;-33
2022/12/27 08:16:20;;;;;;;8.57;2.53;;;4.80;99.90;;;;;;5074172;28;20068;-43
2022/12/27 08:18:46;;;;;;;6.68;1.60;;;4.80;99.90;;;;;;5090848;28;20387;-37
2022/12/27 08:21:12;;;;;;;5.63;2.00;;;4.80;99.90;;;;;;5092246;28;20021;-35
2022/12/27 08:23:38;;;;;;;12.70;2.30;;;4.80;99.90;;;;;;5077849;28;20054;-40
2022/12/27 08:26:04;;;;;;;4.35;2.00;;;4.90;99.90;;;;;;5076050;28;20020;-34
2022/12/27 08:28:30;;;;;;;9.95;1.88;;;5.00;99.90;;;;;;5078825;28;20447;-35
2022/12/27 08:30:57;;;;;;;5.85;1.88;;;5.10;99.90;;;;;;5098487;28;20039;-44
2022/12/27 08:33:23;;;;;;;7.15;1.60;;;5.20;99.90;;;;;;5089794;28;20020;-41
2022/12/27 08:35:49;;;;;;;7.70;1.95;;;5.30;99.90;;;;;;5086888;28;20074;-46
2022/12/27 08:38:15;;;;;;;17.13;2.95;;;5.40;99.90;;;;;;5086610;28;20028;-38
2022/12/27 08:40:42;;;;;;;7.43;1.90;;;5.40;99.90;;;;;;5087293;28;20024;-42
2022/12/27 08:43:09;;;;;;;9.25;2.03;;;5.50;99.90;;;;;;5088999;28;20376;-44
2022/12/27 08:45:36;;;;;;;4.93;2.80;;;5.50;99.90;;;;;;5086346;28;20023;-37
2022/12/27 08:48:03;;;;;;;12.63;2.80;;;5.50;99.90;;;;;;5081257;28;20043;-35
2022/12/27 08:50:29;;;;;;;6.55;2.42;;;5.50;99.90;;;;;;5075509;28;20934;-34
2022/12/27 08:52:59;;;;;;;10.35;2.17;;;5.50;99.90;;;;;;5090103;28;20044;-35
2022/12/27 08:55:26;;;;;;;6.40;1.75;;;5.50;99.90;;;;;;5083208;28;20036;-35
2022/12/27 08:58:00;;;;;;;6.82;2.25;;;5.50;99.90;;;;;;5091984;28;20012;-32
2022/12/27 09:00:27;;;;;;;18.27;3.20;;;5.50;99.90;;;;;;5077786;28;20499;-35
2022/12/27 09:02:53;;;;;;;3.95;1.83;;;5.50;99.90;;;;;;5086923;28;20039;-37
2022/12/27 09:05:20;;;;;;;18.13;3.60;;;5.50;99.90;;;;;;5089540;28;20115;-35
2022/12/27 09:07:47;;;;;;;7.78;3.08;;;5.50;99.90;;;;;;5079116;28;20028;-34
2022/12/27 09:10:13;;;;;;;13.60;2.80;;;5.50;99.90;;;;;;5080926;28;20028;-33
2022/12/27 09:12:39;;;;;;;7.63;2.85;;;5.50;99.90;;;;;;5084470;28;20029;-34
2022/12/27 09:15:06;;;;;;;9.20;2.58;;;5.50;99.90;;;;;;5075214;28;20035;-40
2022/12/27 09:17:32;;;;;;;8.90;2.75;;;5.50;99.90;;;;;;5079471;28;20040;-35
2022/12/27 09:19:57;;;;;;;11.80;3.10;;;5.50;99.90;;;;;;5075396;28;20024;-35
2022/12/27 09:22:23;;;;;;;7.15;2.25;;;5.50;99.90;;;;;;5087220;28;20499;-45
2022/12/27 09:24:48;;;;;;;14.00;2.97;;;5.50;99.90;;;;;;5089727;28;20031;-49
2022/12/27 09:27:14;;;;;;;7.50;2.63;;;5.60;99.90;;;;;;5088298;28;20524;-44
2022/12/27 09:29:40;;;;;;;8.32;2.72;;;5.60;99.90;;;;;;5084930;28;20443;-46
2022/12/27 09:32:05;;;;;;;12.68;3.97;;;5.60;99.90;;;;;;5087325;28;20078;-42
2022/12/27 09:34:31;;;;;;;10.52;2.70;;;5.60;99.90;;;;;;5082143;28;20024;-46
2022/12/27 09:36:57;;;;;;;8.95;3.67;;;5.60;99.90;;;;;;5083266;28;20090;-43
2022/12/27 09:39:22;;;;;;;8.23;2.83;;;5.60;99.90;;;;;;5096719;28;20089;-42
2022/12/27 09:41:57;;;;;;;11.07;2.40;;;5.60;99.90;;;;;;5092471;28;20383;-45
2022/12/27 09:44:44;;;;;;;14.00;2.58;;;5.50;99.90;;;;;;5094611;28;20035;-44
2022/12/27 09:47:20;;;;;;;10.82;2.72;;;5.50;99.90;;;;;;5081632;28;20028;-43
2022/12/27 09:49:53;;;;;;;9.05;2.10;;;5.50;99.90;;;;;;5086102;28;20630;-38
2022/12/27 09:52:26;;;;;;;8.77;2.45;;;5.50;99.90;;;;;;5090691;28;20028;-43
2022/12/27 09:54:55;;;;;;;12.27;3.45;;;5.40;99.90;;;;;;5095557;28;20024;-41
2022/12/27 09:57:32;;;;;;;11.00;3.33;;;5.40;99.90;;;;;;5092939;28;20024;-40
2022/12/27 10:00:00;;;;;;;12.48;2.88;;;5.40;99.90;;;;;;5084349;28;20028;-45
2022/12/27 10:02:27;;;;;;;10.15;3.20;;;5.40;99.90;;;;;;5093673;28;20009;-44
2022/12/27 10:04:54;;;;;;;13.47;3.03;;;5.40;99.90;;;;;;5081589;28;20073;-41
2022/12/27 10:07:35;;;;;;;10.70;2.95;;;5.50;99.90;;;;;;5091018;28;20032;-39
2022/12/27 10:10:13;;;;;;;15.43;3.53;;;5.70;99.90;;;;;;5084503;28;20484;-43
2022/12/27 10:12:53;;;;;;;19.50;3.08;;;5.80;99.90;;;;;;5094517;28;20100;-48
2022/12/27 10:15:51;;;;;;;4.68;2.72;;;5.90;99.90;;;;;;5094106;28;20036;-43
2022/12/27 10:18:35;;;;;;;;;;;6.00;99.90;;;;;;5067681;28;20040;-51
2022/12/27 10:21:07;;;;;;;16.17;3.45;;;6.10;99.90;;;;;;5082746;28;20038;-41
2022/12/27 10:23:37;;;;;;;6.38;3.20;;;6.10;99.90;;;;;;5089305;28;20021;-43
2022/12/27 10:26:12;;;;;;;12.77;3.17;;;6.10;99.90;;;;;;5082789;28;20050;-44
2022/12/27 10:28:42;;;;;;;11.32;4.20;;;6.00;99.90;;;;;;5094638;28;20039;-43
2022/12/27 10:31:15;;;;;;;8.65;3.00;;;6.00;99.90;;;;;;5093533;28;20423;-35
2022/12/27 10:33:42;;;;;;;14.50;3.40;;;6.10;99.90;;;;;;5081467;28;20028;-38
2022/12/27 10:36:24;;;;;;;5.97;3.20;;;6.20;99.90;;;;;;5079486;28;20032;-36
2022/12/27 10:38:49;;;;;;;14.82;3.83;;;6.30;99.90;;;;;;5075524;28;20056;-32
2022/12/27 10:41:35;;;;;;;13.63;3.97;;;6.30;99.90;;;;;;5081250;28;20435;-33
2022/12/27 10:44:01;;;;;;;10.10;3.63;;;6.40;99.90;;;;;;5090294;28;20043;-37
2022/12/27 10:46:29;;;;;;;10.40;3.30;;;6.40;99.90;;;;;;5075373;28;20021;-35
2022/12/27 10:49:07;;;;;;;10.90;3.72;;;6.40;99.90;;;;;;5087110;28;20028;-34
2022/12/27 10:51:39;;;;;;;15.02;4.13;;;6.60;99.90;;;;;;5090682;28;20074;-40
2022/12/27 10:54:12;;;;;;;9.18;3.60;;;6.60;99.90;;;;;;5091123;28;20043;-42
2022/12/27 10:56:46;;;;;;;9.15;3.47;;;6.70;99.90;;;;;;5083274;28;20063;-38
2022/12/27 10:59:27;;;;;;;15.10;3.85;;;6.70;99.90;;;;;;5073640;28;20027;-42
2022/12/27 11:02:01;;;;;;;5.93;3.17;;;6.80;99.90;;;;;;5082982;28;20024;-41
2022/12/27 11:04:28;;;;;;;7.53;3.30;;;6.90;99.90;;;;;;5082979;28;20070;-38
2022/12/27 11:07:03;;;;;;;8.73;3.53;;;6.90;99.90;;;;;;5086118;28;20483;-42
2022/12/27 11:09:42;;;;;;;7.03;3.33;;;6.90;99.90;;;;;;5083303;28;20391;-40
2022/12/27 11:12:23;;;;;;;16.85;2.95;;;7.10;99.90;;;;;;5091661;28;20541;-38
2022/12/27 11:15:00;;;;;;;10.10;3.55;;;7.30;99.90;;;;;;5081708;28;20028;-42
2022/12/27 11:17:41;;;;;;;8.52;3.47;;;7.50;99.90;;;;;;5092566;28;20483;-38
2022/12/27 11:20:37;;;;;;;7.85;3.00;;;7.50;99.90;;;;;;5093919;28;20020;-36
2022/12/27 11:23:10;;;;;;;11.93;2.75;;;7.50;99.90;;;;;;5084635;28;20467;-38
2022/12/27 11:25:56;;;;;;;9.15;2.92;;;7.50;99.90;;;;;;5093350;28;20024;-37
2022/12/27 11:28:22;;;;;;;7.00;3.05;;;7.50;99.90;;;;;;5093624;28;20024;-40
2022/12/27 11:30:56;;;;;;;13.05;3.33;;;7.50;99.90;;;;;;5087645;28;20031;-34
2022/12/27 11:33:38;;;;;;;5.93;3.00;;;7.50;99.90;;;;;;5086066;28;20016;-34
2022/12/27 11:36:05;;;;;;;15.32;3.80;;;7.50;99.90;;;;;;5091907;28;20597;-36
2022/12/27 11:38:33;;;;;;;9.00;3.33;;;7.40;99.90;;;;;;5094115;28;20015;-37
2022/12/27 11:41:02;;;;;;;14.05;3.80;;;7.40;99.90;;;;;;5087086;28;20051;-39
2022/12/27 11:43:32;;;;;;;10.00;3.58;;;7.50;99.90;;;;;;5080916;28;20051;-40
2022/12/27 11:46:01;;;;;;;6.75;2.78;;;7.70;99.90;;;;;;5083016;28;20472;-37
2022/12/27 11:48:29;;;;;;;8.00;3.25;;;7.70;99.90;;;;;;5093074;28;20052;-36
2022/12/27 11:51:14;;;;;;;;;;;7.80;99.90;;;;;;5086767;28;20028;-32
2022/12/27 11:53:58;;;;;;;9.20;3.30;;;7.80;99.90;;;;;;5079516;28;20407;-35
2022/12/27 11:56:33;;;;;;;7.35;2.83;;;7.90;99.90;;;;;;5079838;28;20029;-34
2022/12/27 11:59:36;;;;;;;10.45;3.38;;;7.90;99.90;;;;;;5080885;28;20496;-37
2022/12/27 12:02:01;;;;;;;3.65;2.72;;;7.90;99.90;;;;;;5084751;28;20028;-36
2022/12/27 12:04:35;;;;;;;4.78;2.33;;;7.90;99.90;;;;;;5088778;28;20503;-40
2022/12/27 12:07:16;;;;;;;13.35;3.30;;;8.00;99.90;;;;;;5081857;28;20428;-37
2022/12/27 12:09:48;;;;;;;9.77;3.13;;;8.00;99.90;;;;;;5085289;28;20115;-44
2022/12/27 12:12:38;;;;;;;5.72;3.25;;;8.00;99.90;;;;;;5085559;28;20563;-46
2022/12/27 12:15:28;;;;;;;8.75;4.15;;;8.00;99.90;;;;;;5078115;28;20036;-47
2022/12/27 12:18:26;;;;;;;4.05;2.60;;;8.00;99.90;;;;;;5090676;28;20063;-44
2022/12/27 12:21:13;;;;;;;6.07;2.42;;;8.00;99.90;;;;;;5082325;28;20052;-50
2022/12/27 12:23:48;;;;;;;8.45;3.15;;;8.10;99.90;;;;;;5090417;28;20035;-45
2022/12/27 12:26:20;;;;;;;7.28;2.53;;;8.20;99.90;;;;;;5092537;28;20028;-47
2022/12/27 12:28:58;;;;;;;16.20;2.88;;;8.30;99.90;;;;;;5089324;28;20073;-33
2022/12/27 12:31:42;;;;;;;10.77;2.97;;;8.40;99.90;;;;;;5086220;28;20488;-35
2022/12/27 12:34:22;;;;;;;9.85;3.00;;;8.40;99.90;;;;;;5085703;28;20024;-35
2022/12/27 12:37:07;;;;;;;11.88;2.97;;;8.40;99.90;;;;;;5091407;28;20016;-35
2022/12/27 12:39:39;;;;;;;11.82;3.38;;;8.40;99.90;;;;;;5078519;28;20489;-37
2022/12/27 12:42:54;;;;;;;9.07;2.75;;;8.40;99.90;;;;;;5083170;28;20085;-38
2022/12/27 12:45:41;;;;;;;5.68;3.03;;;8.40;99.90;;;;;;5061445;28;20054;-38
2022/12/27 12:48:13;;;;;;;7.78;2.97;;;8.30;99.90;;;;;;5092911;28;20024;-38
2022/12/27 12:51:09;;;;;;;7.78;2.88;;;8.30;99.90;;;;;;5091754;28;20039;-35
2022/12/27 12:53:47;;;;;;;7.05;2.72;;;8.30;99.90;;;;;;5085357;28;20155;-40
2022/12/27 12:56:19;;;;;;;10.90;3.40;;;8.20;99.90;;;;;;5087961;28;20085;-36
2022/12/27 12:59:12;;;;;;;22.67;6.45;;;8.20;99.90;;;;;;5092062;28;20023;-35
2022/12/27 13:02:05;;;;;;;9.88;4.15;;;8.20;99.90;;;;;;5078636;28;20024;-35
2022/12/27 13:05:01;;;;;;;9.13;3.13;;;8.20;99.90;;;;;;5087412;28;20031;-34
2022/12/27 13:07:50;;;;;;;8.38;2.92;;;8.20;99.90;;;;;;5074820;28;20028;-34
2022/12/27 13:10:47;;;;;;;8.65;3.35;;;8.30;99.90;;;;;;5060219;28;20492;-42
2022/12/27 13:13:53;;;;;;;12.27;4.30;;;8.30;99.90;;;;;;5082833;28;20035;-43
2022/12/27 13:16:33;;;;;;;6.87;3.70;;;8.40;99.90;;;;;;5077327;28;20507;-47
2022/12/27 13:19:36;;;;;;;10.98;2.58;;;8.40;99.90;;;;;;5088922;28;20496;-42
2022/12/27 13:22:20;;;;;;;5.70;2.50;;;8.50;99.90;;;;;;5086905;28;20516;-45
2022/12/27 13:25:05;;;;;;;11.05;3.35;;;8.50;99.90;;;;;;5084785;28;20024;-47
2022/12/27 13:27:39;;;;;;;6.45;2.95;;;8.60;99.90;;;;;;5083770;28;20056;-40
2022/12/27 13:30:26;;;;;;;6.20;2.65;;;8.60;99.90;;;;;;5086547;28;20028;-40
2022/12/27 13:33:00;;;;;;;11.10;3.05;;;8.70;99.90;;;;;;5087238;28;20024;-47
2022/12/27 13:35:57;;;;;;;3.33;2.13;;;8.60;99.90;;;;;;5080823;28;20052;-42
2022/12/27 13:38:35;;;;;;;5.68;2.17;;;8.60;99.90;;;;;;5077976;28;20523;-45
2022/12/27 13:41:24;;;;;;;11.57;2.15;;;8.50;99.90;;;;;;5089876;28;20008;-42
2022/12/27 13:43:50;;;;;;;4.03;2.38;;;8.40;99.90;;;;;;5083838;28;20024;-43
2022/12/27 13:46:34;;;;;;;13.18;2.67;;;8.30;99.90;;;;;;5083883;28;20049;-43
2022/12/27 13:49:06;;;;;;;10.90;3.00;;;8.30;99.90;;;;;;5086868;28;20526;-45
2022/12/27 13:51:41;;;;;;;7.97;2.88;;;8.30;99.90;;;;;;5086694;28;21362;-42
2022/12/27 13:54:30;;;;;;;8.88;2.35;;;8.30;99.90;;;;;;5085456;28;20062;-42
2022/12/27 13:57:40;;;;;;;5.32;2.15;;;8.30;99.90;;;;;;5086392;28;20032;-46
2022/12/27 14:00:16;;;;;;;8.05;2.65;;;8.20;99.90;;;;;;5092371;28;20503;-44
2022/12/27 14:03:12;;;;;;;7.50;2.92;;;8.20;99.90;;;;;;5090987;28;20023;-42
2022/12/27 14:05:40;;;;;;;6.68;2.60;;;8.20;99.90;;;;;;5093402;28;20035;-44
2022/12/27 14:08:18;;;;;;;6.68;2.60;;;8.20;99.90;;;;;;5095193;28;20062;-47
2022/12/27 14:10:51;;;;;;;9.10;2.90;;;8.20;99.90;;;;;;5091052;28;20020;-46
2022/12/27 14:13:24;;;;;;;6.47;2.47;;;8.20;99.90;;;;;;5087496;28;20032;-43
2022/12/27 14:16:15;;;;;;;8.82;2.88;;;8.20;99.90;;;;;;5083267;28;20476;-49
2022/12/27 14:18:58;;;;;;;8.40;2.33;;;8.20;99.90;;;;;;5084379;28;20392;-45
2022/12/27 14:21:27;;;;;;;4.80;2.67;;;8.10;99.90;;;;;;5083016;28;20590;-44
2022/12/27 14:24:01;;;;;;;16.20;3.47;;;8.20;99.90;;;;;;5083354;28;20488;-45
2022/12/27 14:26:45;;;;;;;11.48;3.03;;;8.20;99.90;;;;;;5084105;28;20066;-42
2022/12/27 14:29:27;;;;;;;9.63;4.18;;;8.20;99.90;;;;;;5083949;28;20016;-43
2022/12/27 14:32:30;;;;;;;6.22;2.45;;;8.10;99.90;;;;;;5083629;28;20047;-39
2022/12/27 14:35:14;;;;;;;10.25;2.78;;;8.10;99.90;;;;;;5087291;28;20032;-39
2022/12/27 14:38:17;;;;;;;9.35;2.75;;;8.20;99.90;;;;;;5082934;28;20052;-34
2022/12/27 14:41:04;;;;;;;10.65;3.15;;;8.10;99.90;;;;;;5083680;28;20028;-38
2022/12/27 14:44:20;;;;;;;7.43;2.80;;;8.10;99.90;;;;;;5077035;28;20063;-37
2022/12/27 14:47:19;;;;;;;6.80;2.20;;;8.00;99.90;;;;;;5082939;28;20827;-36
2022/12/27 14:50:14;;;;;;;9.43;3.17;;;7.90;99.90;;;;;;5083874;28;20063;-33
2022/12/27 14:53:05;;;;;;;4.82;3.03;;;8.00;99.90;;;;;;5085565;28;20032;-37
2022/12/27 14:55:37;;;;;;;5.53;1.98;;;7.90;99.90;;;;;;5085868;28;20483;-34
2022/12/27 14:58:15;;;;;;;7.90;2.92;;;7.90;99.90;;;;;;5084370;28;20020;-40
2022/12/27 15:01:11;;;;;;;5.88;2.40;;;7.90;99.90;;;;;;5081349;28;20101;-38
2022/12/27 15:03:46;;;;;;;7.18;3.05;;;7.80;99.90;;;;;;5082121;28;20016;-42
2022/12/27 15:06:40;;;;;;;6.72;2.63;;;7.80;99.90;;;;;;5089489;28;20020;-41
2022/12/27 15:09:08;;;;;;;8.93;2.58;;;7.70;99.90;;;;;;5083894;28;20034;-39
2022/12/27 15:11:57;;;;;;;11.00;3.33;;;7.80;99.90;;;;;;5081675;28;20105;-38
2022/12/27 15:14:52;;;;;;;7.95;2.15;;;7.70;99.90;;;;;;5081033;28;20549;-36
2022/12/27 15:17:29;;;;;;;8.88;2.53;;;7.70;99.90;;;;;;5082353;28;20578;-33